sensor_id;sensor_type;location;lat;lon;timestamp;P1;durP1;ratioP1;P2;durP2;ratioP2
16101;SDS011;56411;52.964;10.540;2022-12-10T00:01:18;37.50;;;15.43;;
16101;SDS011;56411;52.964;10.540;2022-12-10T00:03:47;35.47;;;14.83;;
16101;SDS011;56411;52.964;10.540;2022-12-10T00:06:15;34.77;;;14.30;;
16101;SDS011;56411;52.964;10.540;2022-12-10T00:08:43;35.13;;;14.67;;
16101;SDS011;56411;52.964;10.540;2022-12-10T00:11:11;33.97;;;14.77;;
16101;SDS011;56411;52.964;10.540;2022-12-10T00:13:41;33.30;;;14.00;;
16101;SDS011;56411;52.964;10.540;2022-12-10T00:16:11;33.30;;;13.07;;
16101;SDS011;56411;52.964;10.540;2022-12-10T00:18:40;33.60;;;14.40;;
16101;SDS011;56411;52.964;10.540;2022-12-10T00:21:08;33.53;;;13.97;;
16101;SDS011;56411;52.964;10.540;2022-12-10T00:23:37;35.60;;;14.07;;
16101;SDS011;56411;52.964;10.540;2022-12-10T00:26:05;36.13;;;15.07;;
16101;SDS011;56411;52.964;10.540;2022-12-10T00:28:34;37.73;;;15.43;;
16101;SDS011;56411;52.964;10.540;2022-12-10T00:31:02;37.50;;;15.30;;
16101;SDS011;56411;52.964;10.540;2022-12-10T00:33:30;41.03;;;15.80;;
16101;SDS011;56411;52.964;10.540;2022-12-10T00:36:02;44.97;;;18.57;;
16101;SDS011;56411;52.964;10.540;2022-12-10T00:38:30;43.67;;;18.50;;
16101;SDS011;56411;52.964;10.540;2022-12-10T00:40:57;56.70;;;21.87;;
16101;SDS011;56411;52.964;10.540;2022-12-10T00:43:30;56.70;;;22.07;;
16101;SDS011;56411;52.964;10.540;2022-12-10T00:45:58;52.87;;;20.80;;
16101;SDS011;56411;52.964;10.540;2022-12-10T00:48:25;41.93;;;16.97;;
16101;SDS011;56411;52.964;10.540;2022-12-10T00:50:56;41.17;;;16.93;;
16101;SDS011;56411;52.964;10.540;2022-12-10T00:53:26;46.93;;;17.53;;
16101;SDS011;56411;52.964;10.540;2022-12-10T00:55:54;44.50;;;17.13;;
16101;SDS011;56411;52.964;10.540;2022-12-10T00:58:23;42.17;;;16.40;;
16101;SDS011;56411;52.964;10.540;2022-12-10T01:00:52;43.03;;;16.37;;
16101;SDS011;56411;52.964;10.540;2022-12-10T01:03:19;37.37;;;15.40;;
16101;SDS011;56411;52.964;10.540;2022-12-10T01:05:46;37.57;;;14.60;;
16101;SDS011;56411;52.964;10.540;2022-12-10T01:08:13;35.93;;;14.67;;
16101;SDS011;56411;52.964;10.540;2022-12-10T01:10:42;36.87;;;13.90;;
16101;SDS011;56411;52.964;10.540;2022-12-10T01:13:09;29.70;;;12.50;;
16101;SDS011;56411;52.964;10.540;2022-12-10T01:15:37;32.47;;;13.50;;
16101;SDS011;56411;52.964;10.540;2022-12-10T01:18:05;36.83;;;14.03;;
16101;SDS011;56411;52.964;10.540;2022-12-10T01:20:34;31.33;;;12.83;;
16101;SDS011;56411;52.964;10.540;2022-12-10T01:23:02;33.37;;;13.77;;
16101;SDS011;56411;52.964;10.540;2022-12-10T01:25:30;31.83;;;12.13;;
16101;SDS011;56411;52.964;10.540;2022-12-10T01:27:58;32.67;;;12.13;;
16101;SDS011;56411;52.964;10.540;2022-12-10T01:30:25;28.80;;;12.00;;
16101;SDS011;56411;52.964;10.540;2022-12-10T01:32:53;30.23;;;12.27;;
16101;SDS011;56411;52.964;10.540;2022-12-10T01:35:20;32.10;;;12.63;;
16101;SDS011;56411;52.964;10.540;2022-12-10T01:37:47;30.50;;;12.40;;
16101;SDS011;56411;52.964;10.540;2022-12-10T01:40:14;32.73;;;12.73;;
16101;SDS011;56411;52.964;10.540;2022-12-10T01:42:40;33.83;;;12.33;;
16101;SDS011;56411;52.964;10.540;2022-12-10T01:45:11;29.80;;;12.57;;
16101;SDS011;56411;52.964;10.540;2022-12-10T01:47:39;34.23;;;12.77;;
16101;SDS011;56411;52.964;10.540;2022-12-10T01:50:07;35.10;;;13.30;;
16101;SDS011;56411;52.964;10.540;2022-12-10T01:52:35;33.40;;;13.73;;
16101;SDS011;56411;52.964;10.540;2022-12-10T01:55:06;34.00;;;13.47;;
16101;SDS011;56411;52.964;10.540;2022-12-10T01:57:56;31.47;;;11.87;;
16101;SDS011;56411;52.964;10.540;2022-12-10T02:00:23;31.20;;;12.63;;
16101;SDS011;56411;52.964;10.540;2022-12-10T02:02:51;32.90;;;13.40;;
16101;SDS011;56411;52.964;10.540;2022-12-10T02:05:25;29.93;;;11.63;;
16101;SDS011;56411;52.964;10.540;2022-12-10T02:07:59;30.87;;;12.63;;
16101;SDS011;56411;52.964;10.540;2022-12-10T02:10:36;30.83;;;12.13;;
16101;SDS011;56411;52.964;10.540;2022-12-10T02:13:23;31.37;;;12.33;;
16101;SDS011;56411;52.964;10.540;2022-12-10T02:15:56;28.87;;;12.13;;
16101;SDS011;56411;52.964;10.540;2022-12-10T02:18:27;31.40;;;11.63;;
16101;SDS011;56411;52.964;10.540;2022-12-10T02:20:59;29.27;;;11.27;;
16101;SDS011;56411;52.964;10.540;2022-12-10T02:23:30;28.40;;;11.87;;
16101;SDS011;56411;52.964;10.540;2022-12-10T02:26:02;29.63;;;12.20;;
16101;SDS011;56411;52.964;10.540;2022-12-10T02:28:39;27.70;;;11.53;;
16101;SDS011;56411;52.964;10.540;2022-12-10T02:31:17;30.47;;;12.00;;
16101;SDS011;56411;52.964;10.540;2022-12-10T02:33:48;34.30;;;12.73;;
16101;SDS011;56411;52.964;10.540;2022-12-10T02:36:17;30.83;;;12.07;;
16101;SDS011;56411;52.964;10.540;2022-12-10T02:38:48;28.83;;;11.10;;
16101;SDS011;56411;52.964;10.540;2022-12-10T02:41:18;29.80;;;11.23;;
16101;SDS011;56411;52.964;10.540;2022-12-10T02:43:50;29.73;;;11.40;;
16101;SDS011;56411;52.964;10.540;2022-12-10T02:46:23;28.17;;;11.10;;
16101;SDS011;56411;52.964;10.540;2022-12-10T02:48:53;30.87;;;11.97;;
16101;SDS011;56411;52.964;10.540;2022-12-10T02:51:21;26.87;;;10.53;;
16101;SDS011;56411;52.964;10.540;2022-12-10T02:53:57;29.37;;;11.30;;
16101;SDS011;56411;52.964;10.540;2022-12-10T02:56:26;28.67;;;10.77;;
16101;SDS011;56411;52.964;10.540;2022-12-10T02:59:01;29.17;;;10.83;;
16101;SDS011;56411;52.964;10.540;2022-12-10T03:01:41;25.87;;;10.23;;
16101;SDS011;56411;52.964;10.540;2022-12-10T03:04:20;29.23;;;11.07;;
16101;SDS011;56411;52.964;10.540;2022-12-10T03:06:53;25.33;;;10.40;;
16101;SDS011;56411;52.964;10.540;2022-12-10T03:09:27;30.23;;;11.13;;
16101;SDS011;56411;52.964;10.540;2022-12-10T03:12:01;26.97;;;10.80;;
16101;SDS011;56411;52.964;10.540;2022-12-10T03:14:33;28.23;;;10.77;;
16101;SDS011;56411;52.964;10.540;2022-12-10T03:17:02;29.03;;;10.93;;
16101;SDS011;56411;52.964;10.540;2022-12-10T03:19:33;26.10;;;10.13;;
16101;SDS011;56411;52.964;10.540;2022-12-10T03:22:02;27.23;;;10.50;;
16101;SDS011;56411;52.964;10.540;2022-12-10T03:24:32;26.13;;;10.13;;
16101;SDS011;56411;52.964;10.540;2022-12-10T03:27:01;27.77;;;10.40;;
16101;SDS011;56411;52.964;10.540;2022-12-10T03:29:32;26.67;;;10.47;;
16101;SDS011;56411;52.964;10.540;2022-12-10T03:32:04;24.47;;;9.97;;
16101;SDS011;56411;52.964;10.540;2022-12-10T03:34:32;25.83;;;10.07;;
16101;SDS011;56411;52.964;10.540;2022-12-10T03:37:00;22.50;;;9.27;;
16101;SDS011;56411;52.964;10.540;2022-12-10T03:39:28;29.40;;;10.93;;
16101;SDS011;56411;52.964;10.540;2022-12-10T03:42:05;25.03;;;10.07;;
16101;SDS011;56411;52.964;10.540;2022-12-10T03:44:33;25.57;;;10.13;;
16101;SDS011;56411;52.964;10.540;2022-12-10T03:47:05;30.50;;;11.20;;
16101;SDS011;56411;52.964;10.540;2022-12-10T03:49:34;29.23;;;11.07;;
16101;SDS011;56411;52.964;10.540;2022-12-10T03:52:01;28.17;;;11.00;;
16101;SDS011;56411;52.964;10.540;2022-12-10T03:54:29;31.07;;;11.90;;
16101;SDS011;56411;52.964;10.540;2022-12-10T03:56:56;27.60;;;11.13;;
16101;SDS011;56411;52.964;10.540;2022-12-10T03:59:23;27.53;;;10.83;;
16101;SDS011;56411;52.964;10.540;2022-12-10T04:01:50;28.83;;;11.67;;
16101;SDS011;56411;52.964;10.540;2022-12-10T04:04:19;33.13;;;12.77;;
16101;SDS011;56411;52.964;10.540;2022-12-10T04:06:46;31.57;;;11.87;;
16101;SDS011;56411;52.964;10.540;2022-12-10T04:09:14;33.17;;;12.63;;
16101;SDS011;56411;52.964;10.540;2022-12-10T04:11:42;33.10;;;12.60;;
16101;SDS011;56411;52.964;10.540;2022-12-10T04:14:10;38.43;;;13.13;;
16101;SDS011;56411;52.964;10.540;2022-12-10T04:16:56;40.53;;;14.00;;
16101;SDS011;56411;52.964;10.540;2022-12-10T04:19:25;40.43;;;14.13;;
16101;SDS011;56411;52.964;10.540;2022-12-10T04:21:52;40.37;;;14.43;;
16101;SDS011;56411;52.964;10.540;2022-12-10T04:24:37;40.47;;;13.60;;
16101;SDS011;56411;52.964;10.540;2022-12-10T04:27:21;40.20;;;13.60;;
16101;SDS011;56411;52.964;10.540;2022-12-10T04:29:50;37.47;;;13.17;;
16101;SDS011;56411;52.964;10.540;2022-12-10T04:32:18;38.60;;;13.27;;
16101;SDS011;56411;52.964;10.540;2022-12-10T04:34:47;32.30;;;11.87;;
16101;SDS011;56411;52.964;10.540;2022-12-10T04:37:15;31.60;;;12.80;;
16101;SDS011;56411;52.964;10.540;2022-12-10T04:39:42;35.77;;;12.83;;
16101;SDS011;56411;52.964;10.540;2022-12-10T04:42:10;42.93;;;14.80;;
16101;SDS011;56411;52.964;10.540;2022-12-10T04:44:37;44.20;;;14.73;;
16101;SDS011;56411;52.964;10.540;2022-12-10T04:47:05;37.07;;;13.77;;
16101;SDS011;56411;52.964;10.540;2022-12-10T04:49:33;37.50;;;12.90;;
16101;SDS011;56411;52.964;10.540;2022-12-10T04:52:02;34.83;;;13.93;;
16101;SDS011;56411;52.964;10.540;2022-12-10T04:54:30;39.33;;;14.80;;
16101;SDS011;56411;52.964;10.540;2022-12-10T04:56:57;44.07;;;15.80;;
16101;SDS011;56411;52.964;10.540;2022-12-10T04:59:24;45.80;;;15.97;;
16101;SDS011;56411;52.964;10.540;2022-12-10T05:01:51;45.57;;;15.83;;
16101;SDS011;56411;52.964;10.540;2022-12-10T05:04:19;34.37;;;13.40;;
16101;SDS011;56411;52.964;10.540;2022-12-10T05:06:47;32.17;;;12.30;;
16101;SDS011;56411;52.964;10.540;2022-12-10T05:09:16;30.13;;;11.27;;
16101;SDS011;56411;52.964;10.540;2022-12-10T05:11:43;31.33;;;12.20;;
16101;SDS011;56411;52.964;10.540;2022-12-10T05:14:10;32.70;;;12.03;;
16101;SDS011;56411;52.964;10.540;2022-12-10T05:16:39;30.33;;;11.63;;
16101;SDS011;56411;52.964;10.540;2022-12-10T05:19:07;28.43;;;10.83;;
16101;SDS011;56411;52.964;10.540;2022-12-10T05:21:35;32.53;;;12.67;;
16101;SDS011;56411;52.964;10.540;2022-12-10T05:24:21;26.13;;;11.03;;
16101;SDS011;56411;52.964;10.540;2022-12-10T05:26:48;29.23;;;11.73;;
16101;SDS011;56411;52.964;10.540;2022-12-10T05:29:16;28.77;;;11.37;;
16101;SDS011;56411;52.964;10.540;2022-12-10T05:31:44;27.23;;;10.73;;
16101;SDS011;56411;52.964;10.540;2022-12-10T05:34:12;29.67;;;11.67;;
16101;SDS011;56411;52.964;10.540;2022-12-10T05:36:45;31.43;;;11.30;;
16101;SDS011;56411;52.964;10.540;2022-12-10T05:39:12;32.07;;;12.20;;
16101;SDS011;56411;52.964;10.540;2022-12-10T05:41:41;31.10;;;11.87;;
16101;SDS011;56411;52.964;10.540;2022-12-10T05:44:09;29.23;;;11.73;;
16101;SDS011;56411;52.964;10.540;2022-12-10T05:46:36;29.60;;;11.90;;
16101;SDS011;56411;52.964;10.540;2022-12-10T05:49:04;31.63;;;12.07;;
16101;SDS011;56411;52.964;10.540;2022-12-10T05:51:33;27.03;;;11.27;;
16101;SDS011;56411;52.964;10.540;2022-12-10T05:54:02;31.43;;;12.53;;
16101;SDS011;56411;52.964;10.540;2022-12-10T05:56:31;29.97;;;11.60;;
16101;SDS011;56411;52.964;10.540;2022-12-10T05:59:00;31.23;;;11.83;;
16101;SDS011;56411;52.964;10.540;2022-12-10T06:01:29;27.90;;;11.40;;
16101;SDS011;56411;52.964;10.540;2022-12-10T06:03:57;28.77;;;11.67;;
16101;SDS011;56411;52.964;10.540;2022-12-10T06:06:26;29.20;;;11.47;;
16101;SDS011;56411;52.964;10.540;2022-12-10T06:08:54;28.47;;;11.60;;
16101;SDS011;56411;52.964;10.540;2022-12-10T06:11:22;27.97;;;11.13;;
16101;SDS011;56411;52.964;10.540;2022-12-10T06:13:51;27.53;;;11.00;;
16101;SDS011;56411;52.964;10.540;2022-12-10T06:16:21;29.87;;;12.03;;
16101;SDS011;56411;52.964;10.540;2022-12-10T06:18:48;33.93;;;13.37;;
16101;SDS011;56411;52.964;10.540;2022-12-10T06:21:15;29.47;;;13.17;;
16101;SDS011;56411;52.964;10.540;2022-12-10T06:23:44;29.03;;;12.23;;
16101;SDS011;56411;52.964;10.540;2022-12-10T06:26:12;32.77;;;12.13;;
16101;SDS011;56411;52.964;10.540;2022-12-10T06:28:40;29.17;;;13.03;;
16101;SDS011;56411;52.964;10.540;2022-12-10T06:31:08;29.80;;;11.40;;
16101;SDS011;56411;52.964;10.540;2022-12-10T06:33:36;27.97;;;11.27;;
16101;SDS011;56411;52.964;10.540;2022-12-10T06:36:04;30.83;;;11.53;;
16101;SDS011;56411;52.964;10.540;2022-12-10T06:38:33;29.40;;;11.43;;
16101;SDS011;56411;52.964;10.540;2022-12-10T06:41:01;30.60;;;11.60;;
16101;SDS011;56411;52.964;10.540;2022-12-10T06:43:31;29.43;;;11.00;;
16101;SDS011;56411;52.964;10.540;2022-12-10T06:45:58;30.03;;;12.07;;
16101;SDS011;56411;52.964;10.540;2022-12-10T06:48:25;29.77;;;12.40;;
16101;SDS011;56411;52.964;10.540;2022-12-10T06:50:54;31.70;;;11.60;;
16101;SDS011;56411;52.964;10.540;2022-12-10T06:53:22;31.70;;;12.47;;
16101;SDS011;56411;52.964;10.540;2022-12-10T06:55:49;29.73;;;11.90;;
16101;SDS011;56411;52.964;10.540;2022-12-10T06:58:16;26.07;;;10.37;;
16101;SDS011;56411;52.964;10.540;2022-12-10T07:00:43;30.67;;;11.60;;
16101;SDS011;56411;52.964;10.540;2022-12-10T07:03:10;33.30;;;12.80;;
16101;SDS011;56411;52.964;10.540;2022-12-10T07:05:37;34.93;;;12.67;;
16101;SDS011;56411;52.964;10.540;2022-12-10T07:08:06;28.93;;;12.20;;
16101;SDS011;56411;52.964;10.540;2022-12-10T07:10:33;26.73;;;11.07;;
16101;SDS011;56411;52.964;10.540;2022-12-10T07:13:00;29.37;;;11.73;;
16101;SDS011;56411;52.964;10.540;2022-12-10T07:15:27;30.33;;;12.23;;
16101;SDS011;56411;52.964;10.540;2022-12-10T07:17:54;32.47;;;12.43;;
16101;SDS011;56411;52.964;10.540;2022-12-10T07:20:22;34.10;;;12.40;;
16101;SDS011;56411;52.964;10.540;2022-12-10T07:22:49;36.63;;;13.33;;
16101;SDS011;56411;52.964;10.540;2022-12-10T07:25:18;30.90;;;11.93;;
16101;SDS011;56411;52.964;10.540;2022-12-10T07:27:45;33.50;;;13.23;;
16101;SDS011;56411;52.964;10.540;2022-12-10T07:30:12;32.63;;;13.60;;
16101;SDS011;56411;52.964;10.540;2022-12-10T07:32:40;29.60;;;12.00;;
16101;SDS011;56411;52.964;10.540;2022-12-10T07:35:07;34.27;;;11.97;;
16101;SDS011;56411;52.964;10.540;2022-12-10T07:37:34;64.67;;;20.07;;
16101;SDS011;56411;52.964;10.540;2022-12-10T07:40:02;106.23;;;27.63;;
16101;SDS011;56411;52.964;10.540;2022-12-10T07:42:31;62.13;;;20.43;;
16101;SDS011;56411;52.964;10.540;2022-12-10T07:44:58;53.73;;;17.83;;
16101;SDS011;56411;52.964;10.540;2022-12-10T07:47:25;35.10;;;12.53;;
16101;SDS011;56411;52.964;10.540;2022-12-10T07:49:52;29.67;;;12.13;;
16101;SDS011;56411;52.964;10.540;2022-12-10T07:52:20;30.27;;;11.97;;
16101;SDS011;56411;52.964;10.540;2022-12-10T07:54:47;27.40;;;11.17;;
16101;SDS011;56411;52.964;10.540;2022-12-10T07:57:14;26.77;;;11.53;;
16101;SDS011;56411;52.964;10.540;2022-12-10T07:59:43;28.47;;;11.17;;
16101;SDS011;56411;52.964;10.540;2022-12-10T08:02:10;28.37;;;11.47;;
16101;SDS011;56411;52.964;10.540;2022-12-10T08:04:37;29.30;;;11.23;;
16101;SDS011;56411;52.964;10.540;2022-12-10T08:07:04;31.70;;;11.13;;
16101;SDS011;56411;52.964;10.540;2022-12-10T08:09:32;28.43;;;11.47;;
16101;SDS011;56411;52.964;10.540;2022-12-10T08:11:59;31.67;;;12.30;;
16101;SDS011;56411;52.964;10.540;2022-12-10T08:14:26;29.40;;;12.30;;
16101;SDS011;56411;52.964;10.540;2022-12-10T08:16:55;32.90;;;12.17;;
16101;SDS011;56411;52.964;10.540;2022-12-10T08:19:22;28.40;;;11.10;;
16101;SDS011;56411;52.964;10.540;2022-12-10T08:21:49;27.33;;;11.23;;
16101;SDS011;56411;52.964;10.540;2022-12-10T08:24:16;29.70;;;11.70;;
16101;SDS011;56411;52.964;10.540;2022-12-10T08:26:43;33.30;;;12.77;;
16101;SDS011;56411;52.964;10.540;2022-12-10T08:29:10;35.80;;;14.37;;
16101;SDS011;56411;52.964;10.540;2022-12-10T08:31:37;29.00;;;12.77;;
16101;SDS011;56411;52.964;10.540;2022-12-10T08:34:09;29.33;;;12.33;;
16101;SDS011;56411;52.964;10.540;2022-12-10T08:36:38;28.80;;;12.03;;
16101;SDS011;56411;52.964;10.540;2022-12-10T08:39:06;31.60;;;13.43;;
16101;SDS011;56411;52.964;10.540;2022-12-10T08:41:35;29.97;;;12.87;;
16101;SDS011;56411;52.964;10.540;2022-12-10T08:44:02;30.70;;;11.83;;
16101;SDS011;56411;52.964;10.540;2022-12-10T08:46:30;30.60;;;11.90;;
16101;SDS011;56411;52.964;10.540;2022-12-10T08:48:57;31.23;;;12.33;;
16101;SDS011;56411;52.964;10.540;2022-12-10T08:51:26;27.40;;;11.73;;
16101;SDS011;56411;52.964;10.540;2022-12-10T08:53:54;27.63;;;11.17;;
16101;SDS011;56411;52.964;10.540;2022-12-10T08:56:21;29.47;;;11.93;;
16101;SDS011;56411;52.964;10.540;2022-12-10T08:58:49;32.10;;;12.50;;
16101;SDS011;56411;52.964;10.540;2022-12-10T09:01:17;28.97;;;11.90;;
16101;SDS011;56411;52.964;10.540;2022-12-10T09:03:45;28.33;;;10.97;;
16101;SDS011;56411;52.964;10.540;2022-12-10T09:06:13;27.87;;;11.43;;
16101;SDS011;56411;52.964;10.540;2022-12-10T09:08:43;26.47;;;10.97;;
16101;SDS011;56411;52.964;10.540;2022-12-10T09:11:10;27.07;;;10.80;;
16101;SDS011;56411;52.964;10.540;2022-12-10T09:13:40;25.97;;;10.10;;
16101;SDS011;56411;52.964;10.540;2022-12-10T09:16:07;27.93;;;11.17;;
16101;SDS011;56411;52.964;10.540;2022-12-10T09:18:34;23.73;;;9.80;;
16101;SDS011;56411;52.964;10.540;2022-12-10T09:21:04;25.00;;;10.10;;
16101;SDS011;56411;52.964;10.540;2022-12-10T09:23:32;25.67;;;10.63;;
16101;SDS011;56411;52.964;10.540;2022-12-10T09:26:01;26.17;;;10.10;;
16101;SDS011;56411;52.964;10.540;2022-12-10T09:28:32;23.30;;;9.47;;
16101;SDS011;56411;52.964;10.540;2022-12-10T09:30:59;26.00;;;10.57;;
16101;SDS011;56411;52.964;10.540;2022-12-10T09:33:27;24.03;;;10.30;;
16101;SDS011;56411;52.964;10.540;2022-12-10T09:35:55;26.23;;;11.30;;
16101;SDS011;56411;52.964;10.540;2022-12-10T09:38:22;22.17;;;10.17;;
16101;SDS011;56411;52.964;10.540;2022-12-10T09:40:50;24.30;;;10.13;;
16101;SDS011;56411;52.964;10.540;2022-12-10T09:43:28;25.67;;;10.70;;
16101;SDS011;56411;52.964;10.540;2022-12-10T09:46:10;24.33;;;10.60;;
16101;SDS011;56411;52.964;10.540;2022-12-10T09:48:47;24.27;;;10.57;;
16101;SDS011;56411;52.964;10.540;2022-12-10T09:51:25;26.30;;;11.17;;
16101;SDS011;56411;52.964;10.540;2022-12-10T09:53:56;27.23;;;11.20;;
16101;SDS011;56411;52.964;10.540;2022-12-10T09:56:26;25.83;;;10.20;;
16101;SDS011;56411;52.964;10.540;2022-12-10T09:58:57;24.40;;;9.93;;
16101;SDS011;56411;52.964;10.540;2022-12-10T10:01:29;26.87;;;10.77;;
16101;SDS011;56411;52.964;10.540;2022-12-10T10:03:59;24.80;;;10.37;;
16101;SDS011;56411;52.964;10.540;2022-12-10T10:06:28;25.20;;;10.67;;
16101;SDS011;56411;52.964;10.540;2022-12-10T10:08:56;26.80;;;10.33;;
16101;SDS011;56411;52.964;10.540;2022-12-10T10:11:29;25.93;;;10.37;;
16101;SDS011;56411;52.964;10.540;2022-12-10T10:14:00;23.93;;;10.30;;
16101;SDS011;56411;52.964;10.540;2022-12-10T10:16:33;24.97;;;11.07;;
16101;SDS011;56411;52.964;10.540;2022-12-10T10:19:03;25.37;;;11.20;;
16101;SDS011;56411;52.964;10.540;2022-12-10T10:21:33;29.17;;;10.97;;
16101;SDS011;56411;52.964;10.540;2022-12-10T10:24:02;27.03;;;11.00;;
16101;SDS011;56411;52.964;10.540;2022-12-10T10:26:31;25.63;;;10.87;;
16101;SDS011;56411;52.964;10.540;2022-12-10T10:29:01;24.83;;;11.17;;
16101;SDS011;56411;52.964;10.540;2022-12-10T10:31:31;26.47;;;10.27;;
16101;SDS011;56411;52.964;10.540;2022-12-10T10:34:02;25.93;;;9.97;;
16101;SDS011;56411;52.964;10.540;2022-12-10T10:36:31;27.73;;;10.87;;
16101;SDS011;56411;52.964;10.540;2022-12-10T10:39:07;28.87;;;10.10;;
16101;SDS011;56411;52.964;10.540;2022-12-10T10:41:37;26.40;;;10.80;;
16101;SDS011;56411;52.964;10.540;2022-12-10T10:44:12;27.07;;;10.30;;
16101;SDS011;56411;52.964;10.540;2022-12-10T10:46:42;29.17;;;11.60;;
16101;SDS011;56411;52.964;10.540;2022-12-10T10:49:18;27.67;;;10.43;;
16101;SDS011;56411;52.964;10.540;2022-12-10T10:51:49;30.87;;;11.83;;
16101;SDS011;56411;52.964;10.540;2022-12-10T10:54:31;29.17;;;12.10;;
16101;SDS011;56411;52.964;10.540;2022-12-10T10:57:03;29.50;;;11.47;;
16101;SDS011;56411;52.964;10.540;2022-12-10T10:59:38;27.40;;;11.03;;
16101;SDS011;56411;52.964;10.540;2022-12-10T11:02:17;28.23;;;10.93;;
16101;SDS011;56411;52.964;10.540;2022-12-10T11:04:47;28.47;;;11.07;;
16101;SDS011;56411;52.964;10.540;2022-12-10T11:07:19;24.80;;;10.17;;
16101;SDS011;56411;52.964;10.540;2022-12-10T11:09:51;24.17;;;10.37;;
16101;SDS011;56411;52.964;10.540;2022-12-10T11:18:19;27.83;;;10.33;;
16101;SDS011;56411;52.964;10.540;2022-12-10T11:20:58;27.47;;;10.33;;
16101;SDS011;56411;52.964;10.540;2022-12-10T11:23:28;26.27;;;10.27;;
16101;SDS011;56411;52.964;10.540;2022-12-10T11:25:57;26.23;;;10.87;;
16101;SDS011;56411;52.964;10.540;2022-12-10T11:28:35;26.40;;;10.40;;
16101;SDS011;56411;52.964;10.540;2022-12-10T11:31:21;25.53;;;9.97;;
16101;SDS011;56411;52.964;10.540;2022-12-10T11:34:09;29.93;;;11.20;;
16101;SDS011;56411;52.964;10.540;2022-12-10T11:36:48;27.20;;;10.70;;
16101;SDS011;56411;52.964;10.540;2022-12-10T11:39:30;26.30;;;10.40;;
16101;SDS011;56411;52.964;10.540;2022-12-10T11:42:17;26.17;;;10.17;;
16101;SDS011;56411;52.964;10.540;2022-12-10T11:44:57;27.67;;;10.70;;
16101;SDS011;56411;52.964;10.540;2022-12-10T11:47:38;27.27;;;11.37;;
16101;SDS011;56411;52.964;10.540;2022-12-10T11:50:17;31.10;;;11.93;;
16101;SDS011;56411;52.964;10.540;2022-12-10T11:52:55;30.37;;;12.20;;
16101;SDS011;56411;52.964;10.540;2022-12-10T11:55:33;33.43;;;13.57;;
16101;SDS011;56411;52.964;10.540;2022-12-10T12:01:07;27.67;;;10.43;;
16101;SDS011;56411;52.964;10.540;2022-12-10T12:03:46;25.03;;;10.50;;
16101;SDS011;56411;52.964;10.540;2022-12-10T12:09:45;28.10;;;10.63;;
16101;SDS011;56411;52.964;10.540;2022-12-10T12:12:25;26.53;;;10.80;;
16101;SDS011;56411;52.964;10.540;2022-12-10T12:15:00;23.40;;;9.33;;
16101;SDS011;56411;52.964;10.540;2022-12-10T12:17:30;27.70;;;11.00;;
16101;SDS011;56411;52.964;10.540;2022-12-10T12:20:03;26.50;;;10.87;;
16101;SDS011;56411;52.964;10.540;2022-12-10T12:22:39;24.30;;;9.37;;
16101;SDS011;56411;52.964;10.540;2022-12-10T12:25:15;24.30;;;9.93;;
16101;SDS011;56411;52.964;10.540;2022-12-10T12:27:48;24.83;;;9.83;;
16101;SDS011;56411;52.964;10.540;2022-12-10T12:30:19;24.60;;;9.97;;
16101;SDS011;56411;52.964;10.540;2022-12-10T12:32:50;23.80;;;10.33;;
16101;SDS011;56411;52.964;10.540;2022-12-10T12:35:22;24.83;;;10.13;;
16101;SDS011;56411;52.964;10.540;2022-12-10T12:37:56;23.13;;;9.30;;
16101;SDS011;56411;52.964;10.540;2022-12-10T12:40:28;22.17;;;8.80;;
16101;SDS011;56411;52.964;10.540;2022-12-10T12:42:58;22.80;;;9.90;;
16101;SDS011;56411;52.964;10.540;2022-12-10T12:45:31;23.97;;;9.57;;
16101;SDS011;56411;52.964;10.540;2022-12-10T12:48:02;25.63;;;9.90;;
16101;SDS011;56411;52.964;10.540;2022-12-10T12:50:41;26.33;;;10.27;;
16101;SDS011;56411;52.964;10.540;2022-12-10T12:53:11;24.80;;;9.60;;
16101;SDS011;56411;52.964;10.540;2022-12-10T12:55:43;23.87;;;9.80;;
16101;SDS011;56411;52.964;10.540;2022-12-10T12:58:19;25.13;;;10.07;;
16101;SDS011;56411;52.964;10.540;2022-12-10T13:00:53;27.90;;;11.90;;
16101;SDS011;56411;52.964;10.540;2022-12-10T13:03:33;31.47;;;12.50;;
16101;SDS011;56411;52.964;10.540;2022-12-10T13:09:44;26.87;;;10.90;;
16101;SDS011;56411;52.964;10.540;2022-12-10T13:12:17;25.90;;;10.97;;
16101;SDS011;56411;52.964;10.540;2022-12-10T13:15:00;25.43;;;10.53;;
16101;SDS011;56411;52.964;10.540;2022-12-10T13:17:31;25.40;;;10.33;;
16101;SDS011;56411;52.964;10.540;2022-12-10T13:22:55;28.00;;;11.17;;
16101;SDS011;56411;52.964;10.540;2022-12-10T13:25:38;25.80;;;11.13;;
16101;SDS011;56411;52.964;10.540;2022-12-10T13:28:21;29.87;;;12.00;;
16101;SDS011;56411;52.964;10.540;2022-12-10T13:31:16;28.87;;;11.13;;
16101;SDS011;56411;52.964;10.540;2022-12-10T13:33:47;24.40;;;10.83;;
16101;SDS011;56411;52.964;10.540;2022-12-10T13:36:21;31.47;;;12.80;;
16101;SDS011;56411;52.964;10.540;2022-12-10T13:38:56;31.90;;;12.30;;
16101;SDS011;56411;52.964;10.540;2022-12-10T13:41:40;29.20;;;12.47;;
16101;SDS011;56411;52.964;10.540;2022-12-10T13:44:46;27.70;;;11.80;;
16101;SDS011;56411;52.964;10.540;2022-12-10T13:47:23;29.93;;;13.40;;
16101;SDS011;56411;52.964;10.540;2022-12-10T13:49:53;33.13;;;12.30;;
16101;SDS011;56411;52.964;10.540;2022-12-10T13:52:25;33.67;;;12.73;;
16101;SDS011;56411;52.964;10.540;2022-12-10T13:55:19;30.73;;;12.57;;
16101;SDS011;56411;52.964;10.540;2022-12-10T14:00:49;32.20;;;13.70;;
16101;SDS011;56411;52.964;10.540;2022-12-10T14:03:33;30.57;;;12.80;;
16101;SDS011;56411;52.964;10.540;2022-12-10T14:06:23;35.77;;;14.17;;
16101;SDS011;56411;52.964;10.540;2022-12-10T14:09:01;34.63;;;14.27;;
16101;SDS011;56411;52.964;10.540;2022-12-10T14:11:32;32.60;;;13.30;;
16101;SDS011;56411;52.964;10.540;2022-12-10T14:14:05;33.33;;;13.10;;
16101;SDS011;56411;52.964;10.540;2022-12-10T14:16:37;28.30;;;12.23;;
16101;SDS011;56411;52.964;10.540;2022-12-10T14:19:07;29.30;;;12.63;;
16101;SDS011;56411;52.964;10.540;2022-12-10T14:21:40;38.20;;;15.90;;
16101;SDS011;56411;52.964;10.540;2022-12-10T14:27:00;34.27;;;14.30;;
16101;SDS011;56411;52.964;10.540;2022-12-10T14:29:44;34.03;;;14.70;;
16101;SDS011;56411;52.964;10.540;2022-12-10T14:32:41;33.70;;;13.17;;
16101;SDS011;56411;52.964;10.540;2022-12-10T14:35:22;31.73;;;13.80;;
16101;SDS011;56411;52.964;10.540;2022-12-10T14:37:56;31.07;;;12.33;;
16101;SDS011;56411;52.964;10.540;2022-12-10T14:40:42;34.27;;;13.90;;
16101;SDS011;56411;52.964;10.540;2022-12-10T14:43:11;30.97;;;12.63;;
16101;SDS011;56411;52.964;10.540;2022-12-10T14:46:03;31.30;;;14.33;;
16101;SDS011;56411;52.964;10.540;2022-12-10T14:48:55;33.07;;;14.87;;
16101;SDS011;56411;52.964;10.540;2022-12-10T14:51:25;44.33;;;17.73;;
16101;SDS011;56411;52.964;10.540;2022-12-10T14:54:33;36.30;;;15.23;;
16101;SDS011;56411;52.964;10.540;2022-12-10T14:57:14;39.10;;;14.83;;